sensor_id;sensor_type;location;lat;lon;timestamp;P1;durP1;ratioP1;P2;durP2;ratioP2
76259;SDS011;65076;52.362;6.588;2023-03-18T00:01:08;5.97;;;2.28;;
76259;SDS011;65076;52.362;6.588;2023-03-18T00:03:37;3.75;;;1.83;;
76259;SDS011;65076;52.362;6.588;2023-03-18T00:06:06;6.65;;;2.33;;
76259;SDS011;65076;52.362;6.588;2023-03-18T00:08:39;6.50;;;2.40;;
76259;SDS011;65076;52.362;6.588;2023-03-18T00:11:09;5.93;;;2.10;;
76259;SDS011;65076;52.362;6.588;2023-03-18T00:13:38;8.48;;;2.80;;
76259;SDS011;65076;52.362;6.588;2023-03-18T00:16:08;6.32;;;2.35;;
76259;SDS011;65076;52.362;6.588;2023-03-18T00:18:38;4.75;;;2.08;;
76259;SDS011;65076;52.362;6.588;2023-03-18T00:21:06;6.55;;;2.35;;
76259;SDS011;65076;52.362;6.588;2023-03-18T00:23:37;6.20;;;2.63;;
76259;SDS011;65076;52.362;6.588;2023-03-18T00:26:05;5.18;;;2.45;;
76259;SDS011;65076;52.362;6.588;2023-03-18T00:28:34;3.40;;;2.03;;
76259;SDS011;65076;52.362;6.588;2023-03-18T00:31:04;4.65;;;2.50;;
76259;SDS011;65076;52.362;6.588;2023-03-18T00:33:35;7.55;;;2.67;;
76259;SDS011;65076;52.362;6.588;2023-03-18T00:36:05;5.35;;;2.58;;
76259;SDS011;65076;52.362;6.588;2023-03-18T00:38:35;5.72;;;2.72;;
76259;SDS011;65076;52.362;6.588;2023-03-18T00:41:04;6.95;;;3.30;;
76259;SDS011;65076;52.362;6.588;2023-03-18T00:43:37;5.13;;;2.53;;
76259;SDS011;65076;52.362;6.588;2023-03-18T00:46:13;5.05;;;2.92;;
76259;SDS011;65076;52.362;6.588;2023-03-18T00:48:43;7.07;;;2.90;;
76259;SDS011;65076;52.362;6.588;2023-03-18T00:51:13;6.47;;;2.80;;
76259;SDS011;65076;52.362;6.588;2023-03-18T00:53:44;8.70;;;4.05;;
76259;SDS011;65076;52.362;6.588;2023-03-18T00:56:16;5.75;;;3.05;;
76259;SDS011;65076;52.362;6.588;2023-03-18T00:58:45;4.40;;;2.47;;
76259;SDS011;65076;52.362;6.588;2023-03-18T01:01:15;6.40;;;2.63;;
76259;SDS011;65076;52.362;6.588;2023-03-18T01:03:44;4.85;;;3.75;;
76259;SDS011;65076;52.362;6.588;2023-03-18T01:06:15;6.03;;;2.47;;
76259;SDS011;65076;52.362;6.588;2023-03-18T01:08:49;5.75;;;3.10;;
76259;SDS011;65076;52.362;6.588;2023-03-18T01:11:17;4.40;;;2.83;;
76259;SDS011;65076;52.362;6.588;2023-03-18T01:13:45;7.25;;;3.15;;
76259;SDS011;65076;52.362;6.588;2023-03-18T01:16:14;6.15;;;2.72;;
76259;SDS011;65076;52.362;6.588;2023-03-18T01:18:42;5.30;;;2.90;;
76259;SDS011;65076;52.362;6.588;2023-03-18T01:21:10;7.45;;;3.75;;
76259;SDS011;65076;52.362;6.588;2023-03-18T01:23:39;7.95;;;3.97;;
76259;SDS011;65076;52.362;6.588;2023-03-18T01:26:09;6.63;;;2.72;;
76259;SDS011;65076;52.362;6.588;2023-03-18T01:28:37;7.63;;;3.70;;
76259;SDS011;65076;52.362;6.588;2023-03-18T01:31:05;5.40;;;3.20;;
76259;SDS011;65076;52.362;6.588;2023-03-18T01:33:34;4.07;;;2.60;;
76259;SDS011;65076;52.362;6.588;2023-03-18T01:36:03;9.77;;;3.30;;
76259;SDS011;65076;52.362;6.588;2023-03-18T01:38:33;5.80;;;2.75;;
76259;SDS011;65076;52.362;6.588;2023-03-18T01:41:01;8.45;;;3.08;;
76259;SDS011;65076;52.362;6.588;2023-03-18T01:43:32;6.07;;;3.80;;
76259;SDS011;65076;52.362;6.588;2023-03-18T01:49:06;5.03;;;3.00;;
76259;SDS011;65076;52.362;6.588;2023-03-18T01:51:38;4.70;;;2.33;;
76259;SDS011;65076;52.362;6.588;2023-03-18T01:54:09;6.32;;;2.85;;
76259;SDS011;65076;52.362;6.588;2023-03-18T01:56:41;6.95;;;3.13;;
76259;SDS011;65076;52.362;6.588;2023-03-18T01:59:14;5.65;;;2.92;;
76259;SDS011;65076;52.362;6.588;2023-03-18T02:04:16;8.45;;;3.00;;
76259;SDS011;65076;52.362;6.588;2023-03-18T02:06:49;6.60;;;2.53;;
76259;SDS011;65076;52.362;6.588;2023-03-18T02:09:17;9.50;;;3.10;;
76259;SDS011;65076;52.362;6.588;2023-03-18T02:11:45;7.85;;;3.83;;
76259;SDS011;65076;52.362;6.588;2023-03-18T02:14:17;6.13;;;3.22;;
76259;SDS011;65076;52.362;6.588;2023-03-18T02:16:50;5.97;;;3.00;;
76259;SDS011;65076;52.362;6.588;2023-03-18T02:19:30;5.95;;;3.58;;
76259;SDS011;65076;52.362;6.588;2023-03-18T02:22:25;6.60;;;3.35;;
76259;SDS011;65076;52.362;6.588;2023-03-18T02:25:01;7.45;;;3.40;;
76259;SDS011;65076;52.362;6.588;2023-03-18T02:27:45;4.47;;;3.00;;
76259;SDS011;65076;52.362;6.588;2023-03-18T02:30:19;6.05;;;3.83;;
76259;SDS011;65076;52.362;6.588;2023-03-18T02:32:53;8.63;;;3.40;;
76259;SDS011;65076;52.362;6.588;2023-03-18T02:35:25;9.23;;;3.95;;
76259;SDS011;65076;52.362;6.588;2023-03-18T02:37:54;6.07;;;3.58;;
76259;SDS011;65076;52.362;6.588;2023-03-18T02:40:23;6.57;;;3.42;;
76259;SDS011;65076;52.362;6.588;2023-03-18T02:42:56;6.45;;;3.60;;
76259;SDS011;65076;52.362;6.588;2023-03-18T02:45:37;7.72;;;3.63;;
76259;SDS011;65076;52.362;6.588;2023-03-18T02:48:16;9.07;;;3.85;;
76259;SDS011;65076;52.362;6.588;2023-03-18T02:50:49;8.27;;;3.88;;
76259;SDS011;65076;52.362;6.588;2023-03-18T02:53:17;6.85;;;3.65;;
76259;SDS011;65076;52.362;6.588;2023-03-18T02:55:45;7.50;;;3.58;;
76259;SDS011;65076;52.362;6.588;2023-03-18T02:58:14;5.82;;;3.70;;
76259;SDS011;65076;52.362;6.588;2023-03-18T03:00:42;7.80;;;3.90;;
76259;SDS011;65076;52.362;6.588;2023-03-18T03:03:10;8.93;;;3.75;;
76259;SDS011;65076;52.362;6.588;2023-03-18T03:05:38;7.75;;;3.80;;
76259;SDS011;65076;52.362;6.588;2023-03-18T03:08:06;6.15;;;3.83;;
76259;SDS011;65076;52.362;6.588;2023-03-18T03:10:35;6.43;;;3.72;;
76259;SDS011;65076;52.362;6.588;2023-03-18T03:13:03;6.88;;;3.65;;
76259;SDS011;65076;52.362;6.588;2023-03-18T03:15:32;6.15;;;3.55;;
76259;SDS011;65076;52.362;6.588;2023-03-18T03:18:00;10.82;;;4.30;;
76259;SDS011;65076;52.362;6.588;2023-03-18T03:20:29;9.05;;;4.85;;
76259;SDS011;65076;52.362;6.588;2023-03-18T03:22:59;5.00;;;3.63;;
76259;SDS011;65076;52.362;6.588;2023-03-18T03:25:27;8.38;;;4.28;;
76259;SDS011;65076;52.362;6.588;2023-03-18T03:27:56;8.27;;;4.20;;
76259;SDS011;65076;52.362;6.588;2023-03-18T03:30:23;6.18;;;4.13;;
76259;SDS011;65076;52.362;6.588;2023-03-18T03:32:54;7.25;;;4.35;;
76259;SDS011;65076;52.362;6.588;2023-03-18T03:35:22;6.22;;;4.40;;
76259;SDS011;65076;52.362;6.588;2023-03-18T03:37:50;8.73;;;4.28;;
76259;SDS011;65076;52.362;6.588;2023-03-18T03:40:19;7.93;;;4.45;;
76259;SDS011;65076;52.362;6.588;2023-03-18T03:42:47;9.70;;;4.70;;
76259;SDS011;65076;52.362;6.588;2023-03-18T03:45:16;8.23;;;4.80;;
76259;SDS011;65076;52.362;6.588;2023-03-18T03:47:45;8.18;;;4.57;;
76259;SDS011;65076;52.362;6.588;2023-03-18T03:50:16;7.00;;;4.38;;
76259;SDS011;65076;52.362;6.588;2023-03-18T03:52:44;10.32;;;4.40;;
76259;SDS011;65076;52.362;6.588;2023-03-18T03:55:14;7.88;;;4.82;;
76259;SDS011;65076;52.362;6.588;2023-03-18T03:57:45;7.90;;;4.57;;
76259;SDS011;65076;52.362;6.588;2023-03-18T04:00:15;6.97;;;4.07;;
76259;SDS011;65076;52.362;6.588;2023-03-18T04:02:47;6.80;;;4.40;;
76259;SDS011;65076;52.362;6.588;2023-03-18T04:05:19;7.85;;;3.90;;
76259;SDS011;65076;52.362;6.588;2023-03-18T04:07:50;7.55;;;4.50;;
76259;SDS011;65076;52.362;6.588;2023-03-18T04:10:19;8.82;;;4.55;;
76259;SDS011;65076;52.362;6.588;2023-03-18T04:12:48;8.57;;;4.85;;
76259;SDS011;65076;52.362;6.588;2023-03-18T04:15:17;9.55;;;4.72;;
76259;SDS011;65076;52.362;6.588;2023-03-18T04:17:47;9.85;;;5.25;;
76259;SDS011;65076;52.362;6.588;2023-03-18T04:20:16;10.70;;;5.75;;
76259;SDS011;65076;52.362;6.588;2023-03-18T04:22:46;8.05;;;4.80;;
76259;SDS011;65076;52.362;6.588;2023-03-18T04:25:14;9.07;;;4.97;;
76259;SDS011;65076;52.362;6.588;2023-03-18T04:27:42;11.70;;;5.18;;
76259;SDS011;65076;52.362;6.588;2023-03-18T04:30:11;9.57;;;4.95;;
76259;SDS011;65076;52.362;6.588;2023-03-18T04:32:40;12.30;;;5.13;;
76259;SDS011;65076;52.362;6.588;2023-03-18T04:35:08;9.02;;;5.32;;
76259;SDS011;65076;52.362;6.588;2023-03-18T04:37:38;12.57;;;5.75;;
76259;SDS011;65076;52.362;6.588;2023-03-18T04:40:06;9.90;;;5.07;;
76259;SDS011;65076;52.362;6.588;2023-03-18T04:42:37;11.73;;;5.55;;
76259;SDS011;65076;52.362;6.588;2023-03-18T04:45:06;10.40;;;6.35;;
76259;SDS011;65076;52.362;6.588;2023-03-18T04:47:34;11.43;;;6.75;;
76259;SDS011;65076;52.362;6.588;2023-03-18T04:50:03;10.40;;;6.30;;
76259;SDS011;65076;52.362;6.588;2023-03-18T04:52:36;11.63;;;7.00;;
76259;SDS011;65076;52.362;6.588;2023-03-18T04:55:05;11.02;;;6.38;;
76259;SDS011;65076;52.362;6.588;2023-03-18T04:57:35;11.20;;;7.10;;
76259;SDS011;65076;52.362;6.588;2023-03-18T05:00:04;15.45;;;6.85;;
76259;SDS011;65076;52.362;6.588;2023-03-18T05:02:36;13.82;;;7.15;;
76259;SDS011;65076;52.362;6.588;2023-03-18T05:05:05;12.80;;;8.00;;
76259;SDS011;65076;52.362;6.588;2023-03-18T05:07:33;17.42;;;8.63;;
76259;SDS011;65076;52.362;6.588;2023-03-18T05:10:01;15.10;;;8.73;;
76259;SDS011;65076;52.362;6.588;2023-03-18T05:12:33;16.00;;;7.78;;
76259;SDS011;65076;52.362;6.588;2023-03-18T05:15:02;16.45;;;8.75;;
76259;SDS011;65076;52.362;6.588;2023-03-18T05:17:31;13.18;;;7.90;;
76259;SDS011;65076;52.362;6.588;2023-03-18T05:19:59;16.75;;;9.10;;
76259;SDS011;65076;52.362;6.588;2023-03-18T05:22:27;13.57;;;8.90;;
76259;SDS011;65076;52.362;6.588;2023-03-18T05:24:55;17.80;;;9.10;;
76259;SDS011;65076;52.362;6.588;2023-03-18T05:27:23;16.15;;;9.18;;
76259;SDS011;65076;52.362;6.588;2023-03-18T05:29:54;17.25;;;9.27;;
76259;SDS011;65076;52.362;6.588;2023-03-18T05:32:22;20.00;;;8.93;;
76259;SDS011;65076;52.362;6.588;2023-03-18T05:34:50;15.88;;;9.35;;
76259;SDS011;65076;52.362;6.588;2023-03-18T05:37:18;19.80;;;9.77;;
76259;SDS011;65076;52.362;6.588;2023-03-18T05:39:46;16.02;;;9.32;;
76259;SDS011;65076;52.362;6.588;2023-03-18T05:42:15;14.18;;;8.88;;
76259;SDS011;65076;52.362;6.588;2023-03-18T05:44:43;15.95;;;9.45;;
76259;SDS011;65076;52.362;6.588;2023-03-18T05:47:12;15.85;;;9.18;;
76259;SDS011;65076;52.362;6.588;2023-03-18T05:49:40;17.95;;;10.93;;
76259;SDS011;65076;52.362;6.588;2023-03-18T05:52:08;18.00;;;10.48;;
76259;SDS011;65076;52.362;6.588;2023-03-18T05:54:36;18.92;;;9.98;;
76259;SDS011;65076;52.362;6.588;2023-03-18T05:57:04;18.00;;;9.75;;
76259;SDS011;65076;52.362;6.588;2023-03-18T05:59:32;18.70;;;10.65;;
76259;SDS011;65076;52.362;6.588;2023-03-18T06:02:01;18.08;;;11.30;;
76259;SDS011;65076;52.362;6.588;2023-03-18T06:04:30;20.55;;;11.48;;
76259;SDS011;65076;52.362;6.588;2023-03-18T06:06:58;22.17;;;10.90;;
76259;SDS011;65076;52.362;6.588;2023-03-18T06:09:26;20.33;;;11.52;;
76259;SDS011;65076;52.362;6.588;2023-03-18T06:11:54;19.17;;;10.80;;
76259;SDS011;65076;52.362;6.588;2023-03-18T06:14:22;20.17;;;11.10;;
76259;SDS011;65076;52.362;6.588;2023-03-18T06:16:54;19.17;;;10.93;;
76259;SDS011;65076;52.362;6.588;2023-03-18T06:19:22;17.92;;;11.48;;
76259;SDS011;65076;52.362;6.588;2023-03-18T06:21:52;17.45;;;11.05;;
76259;SDS011;65076;52.362;6.588;2023-03-18T06:24:19;18.98;;;11.35;;
76259;SDS011;65076;52.362;6.588;2023-03-18T06:26:47;23.65;;;12.43;;
76259;SDS011;65076;52.362;6.588;2023-03-18T06:29:15;23.55;;;12.65;;
76259;SDS011;65076;52.362;6.588;2023-03-18T06:31:45;20.40;;;12.13;;
76259;SDS011;65076;52.362;6.588;2023-03-18T06:34:13;18.75;;;11.77;;
76259;SDS011;65076;52.362;6.588;2023-03-18T06:36:41;21.75;;;11.15;;
76259;SDS011;65076;52.362;6.588;2023-03-18T06:39:10;20.77;;;11.73;;
76259;SDS011;65076;52.362;6.588;2023-03-18T06:41:39;19.80;;;10.75;;
76259;SDS011;65076;52.362;6.588;2023-03-18T06:44:06;19.95;;;11.13;;
76259;SDS011;65076;52.362;6.588;2023-03-18T06:46:34;19.23;;;10.95;;
76259;SDS011;65076;52.362;6.588;2023-03-18T06:49:02;20.63;;;12.18;;
76259;SDS011;65076;52.362;6.588;2023-03-18T06:51:30;21.42;;;11.73;;
76259;SDS011;65076;52.362;6.588;2023-03-18T06:53:58;19.58;;;11.73;;
76259;SDS011;65076;52.362;6.588;2023-03-18T06:56:28;23.95;;;12.35;;
76259;SDS011;65076;52.362;6.588;2023-03-18T06:58:56;20.88;;;12.00;;
76259;SDS011;65076;52.362;6.588;2023-03-18T07:01:24;21.77;;;11.57;;
76259;SDS011;65076;52.362;6.588;2023-03-18T07:03:52;21.67;;;12.02;;
76259;SDS011;65076;52.362;6.588;2023-03-18T07:06:20;21.25;;;11.70;;
76259;SDS011;65076;52.362;6.588;2023-03-18T07:08:49;21.13;;;10.77;;
76259;SDS011;65076;52.362;6.588;2023-03-18T07:11:18;18.25;;;9.68;;
76259;SDS011;65076;52.362;6.588;2023-03-18T07:13:47;20.77;;;12.23;;
76259;SDS011;65076;52.362;6.588;2023-03-18T07:16:15;22.58;;;11.35;;
76259;SDS011;65076;52.362;6.588;2023-03-18T07:18:43;15.75;;;10.10;;
76259;SDS011;65076;52.362;6.588;2023-03-18T07:21:11;19.23;;;10.30;;
76259;SDS011;65076;52.362;6.588;2023-03-18T07:23:39;16.45;;;10.38;;
76259;SDS011;65076;52.362;6.588;2023-03-18T07:26:08;18.50;;;10.60;;
76259;SDS011;65076;52.362;6.588;2023-03-18T07:28:37;20.58;;;10.95;;
76259;SDS011;65076;52.362;6.588;2023-03-18T07:31:06;24.63;;;13.10;;
76259;SDS011;65076;52.362;6.588;2023-03-18T07:33:34;22.02;;;12.73;;
76259;SDS011;65076;52.362;6.588;2023-03-18T07:36:02;22.02;;;12.80;;
76259;SDS011;65076;52.362;6.588;2023-03-18T07:38:31;17.17;;;11.20;;
76259;SDS011;65076;52.362;6.588;2023-03-18T07:40:59;19.92;;;11.10;;
76259;SDS011;65076;52.362;6.588;2023-03-18T07:43:27;19.48;;;12.07;;
76259;SDS011;65076;52.362;6.588;2023-03-18T07:45:55;20.05;;;9.98;;
76259;SDS011;65076;52.362;6.588;2023-03-18T07:48:25;19.52;;;9.98;;
76259;SDS011;65076;52.362;6.588;2023-03-18T07:50:53;15.32;;;9.25;;
76259;SDS011;65076;52.362;6.588;2023-03-18T07:53:20;20.85;;;12.68;;
76259;SDS011;65076;52.362;6.588;2023-03-18T07:55:48;15.13;;;8.48;;
76259;SDS011;65076;52.362;6.588;2023-03-18T07:58:16;12.77;;;8.90;;
76259;SDS011;65076;52.362;6.588;2023-03-18T08:00:44;15.48;;;10.05;;
76259;SDS011;65076;52.362;6.588;2023-03-18T08:03:12;12.07;;;8.93;;
76259;SDS011;65076;52.362;6.588;2023-03-18T08:05:41;18.75;;;11.73;;
76259;SDS011;65076;52.362;6.588;2023-03-18T08:08:09;19.35;;;12.98;;
76259;SDS011;65076;52.362;6.588;2023-03-18T08:10:37;14.88;;;10.07;;
76259;SDS011;65076;52.362;6.588;2023-03-18T08:13:05;14.73;;;8.77;;
76259;SDS011;65076;52.362;6.588;2023-03-18T08:15:33;15.35;;;10.23;;
76259;SDS011;65076;52.362;6.588;2023-03-18T08:18:00;16.33;;;9.57;;
76259;SDS011;65076;52.362;6.588;2023-03-18T08:20:28;14.27;;;10.25;;
76259;SDS011;65076;52.362;6.588;2023-03-18T08:22:58;14.90;;;10.50;;
76259;SDS011;65076;52.362;6.588;2023-03-18T08:25:26;16.02;;;9.80;;
76259;SDS011;65076;52.362;6.588;2023-03-18T08:27:54;16.80;;;10.30;;
76259;SDS011;65076;52.362;6.588;2023-03-18T08:30:22;17.88;;;10.85;;
76259;SDS011;65076;52.362;6.588;2023-03-18T08:32:53;15.50;;;10.65;;
76259;SDS011;65076;52.362;6.588;2023-03-18T08:35:22;16.48;;;10.18;;
76259;SDS011;65076;52.362;6.588;2023-03-18T08:37:50;14.85;;;9.40;;
76259;SDS011;65076;52.362;6.588;2023-03-18T08:40:21;13.27;;;9.57;;
76259;SDS011;65076;52.362;6.588;2023-03-18T08:45:17;13.10;;;9.43;;
76259;SDS011;65076;52.362;6.588;2023-03-18T08:47:46;13.05;;;10.20;;
76259;SDS011;65076;52.362;6.588;2023-03-18T08:50:14;14.23;;;9.70;;
76259;SDS011;65076;52.362;6.588;2023-03-18T08:52:42;12.93;;;9.23;;
76259;SDS011;65076;52.362;6.588;2023-03-18T08:55:11;14.90;;;11.20;;
76259;SDS011;65076;52.362;6.588;2023-03-18T08:57:40;14.98;;;11.20;;
76259;SDS011;65076;52.362;6.588;2023-03-18T09:00:09;15.20;;;11.40;;
76259;SDS011;65076;52.362;6.588;2023-03-18T09:02:51;15.32;;;11.07;;
76259;SDS011;65076;52.362;6.588;2023-03-18T09:05:20;14.32;;;10.95;;
76259;SDS011;65076;52.362;6.588;2023-03-18T09:07:49;18.17;;;11.70;;
76259;SDS011;65076;52.362;6.588;2023-03-18T09:10:17;11.70;;;8.90;;
76259;SDS011;65076;52.362;6.588;2023-03-18T09:12:47;14.60;;;10.23;;
76259;SDS011;65076;52.362;6.588;2023-03-18T09:15:16;13.95;;;10.50;;
76259;SDS011;65076;52.362;6.588;2023-03-18T09:17:46;16.92;;;12.27;;
76259;SDS011;65076;52.362;6.588;2023-03-18T09:20:34;15.05;;;9.95;;
76259;SDS011;65076;52.362;6.588;2023-03-18T09:23:17;15.80;;;10.85;;
76259;SDS011;65076;52.362;6.588;2023-03-18T09:25:45;13.98;;;9.32;;
76259;SDS011;65076;52.362;6.588;2023-03-18T09:28:16;14.10;;;11.02;;
76259;SDS011;65076;52.362;6.588;2023-03-18T09:30:44;14.05;;;8.98;;
76259;SDS011;65076;52.362;6.588;2023-03-18T09:33:12;12.10;;;8.65;;
76259;SDS011;65076;52.362;6.588;2023-03-18T09:35:41;11.50;;;9.32;;
76259;SDS011;65076;52.362;6.588;2023-03-18T09:38:10;15.77;;;8.95;;
76259;SDS011;65076;52.362;6.588;2023-03-18T09:40:43;12.55;;;9.27;;
76259;SDS011;65076;52.362;6.588;2023-03-18T09:43:51;16.50;;;10.52;;
76259;SDS011;65076;52.362;6.588;2023-03-18T09:46:37;13.52;;;9.40;;
76259;SDS011;65076;52.362;6.588;2023-03-18T09:49:28;13.75;;;9.23;;
76259;SDS011;65076;52.362;6.588;2023-03-18T09:52:31;13.48;;;10.15;;
76259;SDS011;65076;52.362;6.588;2023-03-18T09:55:08;16.83;;;10.30;;
76259;SDS011;65076;52.362;6.588;2023-03-18T09:57:50;15.38;;;10.85;;
76259;SDS011;65076;52.362;6.588;2023-03-18T10:00:26;14.13;;;9.70;;
76259;SDS011;65076;52.362;6.588;2023-03-18T10:03:00;13.65;;;10.98;;
76259;SDS011;65076;52.362;6.588;2023-03-18T10:05:39;14.25;;;9.95;;
76259;SDS011;65076;52.362;6.588;2023-03-18T10:14:46;12.73;;;10.05;;
76259;SDS011;65076;52.362;6.588;2023-03-18T10:20:10;11.05;;;9.05;;
76259;SDS011;65076;52.362;6.588;2023-03-18T10:22:54;13.90;;;10.02;;
76259;SDS011;65076;52.362;6.588;2023-03-18T10:25:34;11.15;;;8.43;;
76259;SDS011;65076;52.362;6.588;2023-03-18T10:28:29;11.70;;;6.50;;
76259;SDS011;65076;52.362;6.588;2023-03-18T10:31:30;8.02;;;6.22;;
76259;SDS011;65076;52.362;6.588;2023-03-18T10:34:14;9.07;;;7.18;;
76259;SDS011;65076;52.362;6.588;2023-03-18T10:39:29;8.07;;;5.13;;
76259;SDS011;65076;52.362;6.588;2023-03-18T10:41:59;6.15;;;4.90;;
76259;SDS011;65076;52.362;6.588;2023-03-18T10:44:45;5.68;;;4.50;;
76259;SDS011;65076;52.362;6.588;2023-03-18T10:49:52;6.97;;;4.15;;
76259;SDS011;65076;52.362;6.588;2023-03-18T10:52:32;7.15;;;4.90;;
76259;SDS011;65076;52.362;6.588;2023-03-18T10:55:10;6.95;;;5.05;;
76259;SDS011;65076;52.362;6.588;2023-03-18T10:57:43;7.60;;;6.07;;
76259;SDS011;65076;52.362;6.588;2023-03-18T11:00:15;6.18;;;5.07;;
76259;SDS011;65076;52.362;6.588;2023-03-18T11:02:54;5.88;;;5.20;;
76259;SDS011;65076;52.362;6.588;2023-03-18T11:05:25;7.90;;;4.70;;
76259;SDS011;65076;52.362;6.588;2023-03-18T11:07:57;5.82;;;4.90;;
76259;SDS011;65076;52.362;6.588;2023-03-18T11:10:31;6.10;;;4.60;;
76259;SDS011;65076;52.362;6.588;2023-03-18T11:13:02;5.80;;;4.00;;
76259;SDS011;65076;52.362;6.588;2023-03-18T11:15:33;5.80;;;4.28;;
76259;SDS011;65076;52.362;6.588;2023-03-18T11:18:05;7.90;;;4.45;;
76259;SDS011;65076;52.362;6.588;2023-03-18T11:20:46;7.65;;;4.72;;
76259;SDS011;65076;52.362;6.588;2023-03-18T11:23:29;5.15;;;4.05;;
76259;SDS011;65076;52.362;6.588;2023-03-18T11:26:17;4.70;;;3.47;;
76259;SDS011;65076;52.362;6.588;2023-03-18T11:28:49;5.75;;;3.72;;
76259;SDS011;65076;52.362;6.588;2023-03-18T11:31:22;4.47;;;3.63;;
76259;SDS011;65076;52.362;6.588;2023-03-18T11:33:54;7.25;;;4.93;;
76259;SDS011;65076;52.362;6.588;2023-03-18T11:36:27;6.20;;;4.22;;
76259;SDS011;65076;52.362;6.588;2023-03-18T11:38:58;5.15;;;3.78;;
76259;SDS011;65076;52.362;6.588;2023-03-18T11:41:30;5.20;;;3.92;;
76259;SDS011;65076;52.362;6.588;2023-03-18T11:43:58;4.75;;;3.17;;
76259;SDS011;65076;52.362;6.588;2023-03-18T11:46:29;5.40;;;4.30;;
76259;SDS011;65076;52.362;6.588;2023-03-18T11:49:03;5.43;;;3.55;;
76259;SDS011;65076;52.362;6.588;2023-03-18T11:51:41;4.90;;;4.18;;
76259;SDS011;65076;52.362;6.588;2023-03-18T11:54:34;4.40;;;3.38;;
76259;SDS011;65076;52.362;6.588;2023-03-18T11:57:28;5.30;;;3.80;;
76259;SDS011;65076;52.362;6.588;2023-03-18T12:03:25;5.25;;;3.78;;
76259;SDS011;65076;52.362;6.588;2023-03-18T12:06:37;5.00;;;3.33;;
76259;SDS011;65076;52.362;6.588;2023-03-18T12:09:22;6.45;;;3.92;;
76259;SDS011;65076;52.362;6.588;2023-03-18T12:12:05;4.47;;;3.63;;
76259;SDS011;65076;52.362;6.588;2023-03-18T12:14:52;5.07;;;3.45;;
76259;SDS011;65076;52.362;6.588;2023-03-18T12:17:34;5.07;;;3.53;;
76259;SDS011;65076;52.362;6.588;2023-03-18T12:20:21;4.85;;;3.35;;
76259;SDS011;65076;52.362;6.588;2023-03-18T12:23:21;3.45;;;3.00;;
76259;SDS011;65076;52.362;6.588;2023-03-18T12:26:17;4.30;;;3.30;;
76259;SDS011;65076;52.362;6.588;2023-03-18T12:29:06;4.32;;;3.03;;
76259;SDS011;65076;52.362;6.588;2023-03-18T12:32:02;3.40;;;3.10;;
76259;SDS011;65076;52.362;6.588;2023-03-18T12:34:47;3.17;;;2.40;;
76259;SDS011;65076;52.362;6.588;2023-03-18T12:37:34;2.78;;;2.58;;
76259;SDS011;65076;52.362;6.588;2023-03-18T12:40:21;3.70;;;2.47;;
76259;SDS011;65076;52.362;6.588;2023-03-18T12:43:16;4.35;;;2.60;;
76259;SDS011;65076;52.362;6.588;2023-03-18T12:46:09;3.10;;;2.80;;
76259;SDS011;65076;52.362;6.588;2023-03-18T12:48:50;4.85;;;2.80;;
76259;SDS011;65076;52.362;6.588;2023-03-18T12:51:29;6.72;;;3.25;;
76259;SDS011;65076;52.362;6.588;2023-03-18T12:54:11;4.97;;;2.40;;
76259;SDS011;65076;52.362;6.588;2023-03-18T12:56:51;3.08;;;2.22;;
76259;SDS011;65076;52.362;6.588;2023-03-18T12:59:28;3.38;;;2.63;;
76259;SDS011;65076;52.362;6.588;2023-03-18T13:02:14;3.72;;;2.72;;
76259;SDS011;65076;52.362;6.588;2023-03-18T13:05:05;4.45;;;2.60;;
76259;SDS011;65076;52.362;6.588;2023-03-18T13:07:51;3.58;;;2.72;;
76259;SDS011;65076;52.362;6.588;2023-03-18T13:10:39;3.63;;;2.47;;
76259;SDS011;65076;52.362;6.588;2023-03-18T13:13:13;2.47;;;2.13;;
76259;SDS011;65076;52.362;6.588;2023-03-18T13:15:43;3.83;;;2.90;;
76259;SDS011;65076;52.362;6.588;2023-03-18T13:18:26;4.05;;;3.13;;
76259;SDS011;65076;52.362;6.588;2023-03-18T13:21:03;3.78;;;2.70;;
76259;SDS011;65076;52.362;6.588;2023-03-18T13:23:37;3.25;;;2.55;;
76259;SDS011;65076;52.362;6.588;2023-03-18T13:26:39;4.35;;;2.67;;
76259;SDS011;65076;52.362;6.588;2023-03-18T13:32:25;4.40;;;2.85;;
76259;SDS011;65076;52.362;6.588;2023-03-18T13:38:30;3.47;;;2.30;;
76259;SDS011;65076;52.362;6.588;2023-03-18T13:41:30;3.92;;;2.38;;
76259;SDS011;65076;52.362;6.588;2023-03-18T13:44:30;3.20;;;2.38;;
76259;SDS011;65076;52.362;6.588;2023-03-18T13:47:12;2.92;;;2.22;;
76259;SDS011;65076;52.362;6.588;2023-03-18T13:49:45;3.25;;;2.25;;
76259;SDS011;65076;52.362;6.588;2023-03-18T13:52:22;2.88;;;2.47;;
76259;SDS011;65076;52.362;6.588;2023-03-18T13:55:01;4.07;;;2.70;;
76259;SDS011;65076;52.362;6.588;2023-03-18T13:57:35;3.28;;;2.45;;
76259;SDS011;65076;52.362;6.588;2023-03-18T14:00:30;4.40;;;2.20;;
76259;SDS011;65076;52.362;6.588;2023-03-18T14:03:04;5.68;;;2.00;;
76259;SDS011;65076;52.362;6.588;2023-03-18T14:05:47;4.10;;;2.35;;
76259;SDS011;65076;52.362;6.588;2023-03-18T14:17:15;3.28;;;1.90;;
76259;SDS011;65076;52.362;6.588;2023-03-18T14:19:52;2.42;;;1.98;;
76259;SDS011;65076;52.362;6.588;2023-03-18T14:22:22;6.13;;;2.22;;
76259;SDS011;65076;52.362;6.588;2023-03-18T14:28:16;2.65;;;1.95;;
76259;SDS011;65076;52.362;6.588;2023-03-18T14:34:01;1.45;;;1.15;;
76259;SDS011;65076;52.362;6.588;2023-03-18T14:37:16;2.28;;;1.92;;
76259;SDS011;65076;52.362;6.588;2023-03-18T14:39:52;3.05;;;1.83;;
76259;SDS011;65076;52.362;6.588;2023-03-18T14:42:29;3.58;;;1.60;;
76259;SDS011;65076;52.362;6.588;2023-03-18T14:45:11;2.10;;;1.52;;
76259;SDS011;65076;52.362;6.588;2023-03-18T14:47:47;3.50;;;1.70;;
76259;SDS011;65076;52.362;6.588;2023-03-18T14:50:19;2.50;;;1.67;;
76259;SDS011;65076;52.362;6.588;2023-03-18T14:53:01;3.28;;;1.65;;
76259;SDS011;65076;52.362;6.588;2023-03-18T14:55:37;2.67;;;1.73;;
76259;SDS011;65076;52.362;6.588;2023-03-18T14:58:09;2.63;;;1.92;;
76259;SDS011;65076;52.362;6.588;2023-03-18T15:00:42;2.80;;;1.77;;
76259;SDS011;65076;52.362;6.588;2023-03-18T15:03:13;3.08;;;2.20;;
76259;SDS011;65076;52.362;6.588;2023-03-18T15:05:48;3.28;;;2.00;;
76259;SDS011;65076;52.362;6.588;2023-03-18T15:08:24;4.75;;;2.17;;
76259;SDS011;65076;52.362;6.588;2023-03-18T15:11:12;2.85;;;2.00;;
76259;SDS011;65076;52.362;6.588;2023-03-18T15:13:41;6.35;;;4.07;;
76259;SDS011;65076;52.362;6.588;2023-03-18T15:16:10;3.85;;;2.38;;
76259;SDS011;65076;52.362;6.588;2023-03-18T15:18:43;3.83;;;2.13;;
76259;SDS011;65076;52.362;6.588;2023-03-18T15:21:12;2.67;;;2.10;;
76259;SDS011;65076;52.362;6.588;2023-03-18T15:23:46;2.63;;;1.92;;
76259;SDS011;65076;52.362;6.588;2023-03-18T15:26:18;3.75;;;1.80;;
76259;SDS011;65076;52.362;6.588;2023-03-18T15:28:52;4.95;;;1.85;;
76259;SDS011;65076;52.362;6.588;2023-03-18T15:31:23;3.22;;;1.63;;
76259;SDS011;65076;52.362;6.588;2023-03-18T15:34:03;4.03;;;1.70;;
76259;SDS011;65076;52.362;6.588;2023-03-18T15:36:38;3.10;;;2.10;;
76259;SDS011;65076;52.362;6.588;2023-03-18T15:39:21;2.75;;;1.83;;
76259;SDS011;65076;52.362;6.588;2023-03-18T15:41:58;3.67;;;1.90;;
76259;SDS011;65076;52.362;6.588;2023-03-18T15:44:28;2.38;;;1.88;;
76259;SDS011;65076;52.362;6.588;2023-03-18T15:47:02;4.20;;;2.13;;
76259;SDS011;65076;52.362;6.588;2023-03-18T15:49:44;2.60;;;1.85;;
76259;SDS011;65076;52.362;6.588;2023-03-18T15:52:19;2.85;;;1.92;;
76259;SDS011;65076;52.362;6.588;2023-03-18T15:54:52;3.03;;;2.05;;
76259;SDS011;65076;52.362;6.588;2023-03-18T15:57:22;3.30;;;1.65;;
76259;SDS011;65076;52.362;6.588;2023-03-18T15:59:58;3.08;;;1.70;;
76259;SDS011;65076;52.362;6.588;2023-03-18T16:02:26;2.45;;;1.50;;
76259;SDS011;65076;52.362;6.588;2023-03-18T16:05:03;1.65;;;1.23;;